createdAt,value
2019-02-26T00:04:39.834Z,12.70
2019-02-26T00:09:34.640Z,13.57
2019-02-26T00:14:22.573Z,13.60
2019-02-26T00:19:14.407Z,11.73
2019-02-26T00:24:04.965Z,12.30
2019-02-26T00:28:54.636Z,13.53
2019-02-26T00:33:46.317Z,11.50
2019-02-26T00:38:38.157Z,11.30
2019-02-26T00:43:30.641Z,11.10
2019-02-26T00:48:20.048Z,11.47
2019-02-26T00:53:11.711Z,13.23
2019-02-26T00:58:03.293Z,13.88
2019-02-26T01:02:53.628Z,12.13
2019-02-26T01:07:47.393Z,11.87
2019-02-26T01:12:37.670Z,11.83
2019-02-26T01:17:27.198Z,10.63
2019-02-26T01:22:18.108Z,10.03
2019-02-26T01:27:09.036Z,11.67
2019-02-26T01:32:02.150Z,11.53
2019-02-26T01:36:51.663Z,13.05
2019-02-26T01:41:45.484Z,11.30
2019-02-26T01:46:34.564Z,10.53
2019-02-26T01:51:26.151Z,11.83
2019-02-26T01:56:17.720Z,11.40
2019-02-26T02:01:07.089Z,10.00
2019-02-26T02:05:58.002Z,10.70
2019-02-26T02:10:49.609Z,10.70
2019-02-26T02:15:42.276Z,10.63
2019-02-26T02:20:31.554Z,11.40
2019-02-26T02:25:22.486Z,13.65
2019-02-26T02:30:17.867Z,11.90
2019-02-26T02:35:06.827Z,12.17
2019-02-26T02:39:56.048Z,11.93
2019-02-26T02:44:49.282Z,11.67
2019-02-26T02:49:39.897Z,11.50
2019-02-26T02:54:29.612Z,10.70
2019-02-26T02:59:20.533Z,12.13
2019-02-26T03:04:14.792Z,11.00
2019-02-26T03:09:02.388Z,12.37
2019-02-26T03:13:53.859Z,11.53
2019-02-26T03:18:44.256Z,14.15
2019-02-26T03:23:38.028Z,12.10
2019-02-26T03:28:26.174Z,12.13
2019-02-26T03:33:17.103Z,13.30
2019-02-26T03:38:08.028Z,13.00
2019-02-26T03:42:58.956Z,12.83
2019-02-26T03:47:50.616Z,12.93
2019-02-26T03:52:41.529Z,12.80
2019-02-26T03:57:33.193Z,11.33
2019-02-26T04:02:24.135Z,13.20
2019-02-26T04:07:15.056Z,15.18
2019-02-26T04:12:07.618Z,13.80
2019-02-26T04:16:58.723Z,13.03
2019-02-26T04:22:00.847Z,12.40
2019-02-26T04:26:56.436Z,13.40
2019-02-26T04:31:57.590Z,12.80
2019-02-26T04:36:49.039Z,13.13
2019-02-26T04:41:59.794Z,12.80
2019-02-26T04:46:51.460Z,12.30
2019-02-26T04:51:44.877Z,15.60
2019-02-26T04:56:35.998Z,15.43
2019-02-26T05:01:23.898Z,14.97
2019-02-26T05:06:14.818Z,15.47
2019-02-26T05:11:05.720Z,14.27
2019-02-26T05:15:56.621Z,14.23
2019-02-26T05:20:48.411Z,13.93
2019-02-26T05:25:39.727Z,13.40
2019-02-26T05:30:29.383Z,14.90
2019-02-26T05:35:22.772Z,15.03
2019-02-26T05:40:13.389Z,15.93
2019-02-26T05:45:03.863Z,17.93
2019-02-26T05:49:53.041Z,21.10
2019-02-26T05:54:43.946Z,17.37
2019-02-26T05:59:35.581Z,20.10
2019-02-26T06:04:27.220Z,18.90
2019-02-26T06:09:20.056Z,18.80
2019-02-26T06:14:12.643Z,19.83
2019-02-26T06:19:00.756Z,17.57
2019-02-26T06:23:52.395Z,18.00
2019-02-26T06:28:45.438Z,19.93
2019-02-26T06:33:36.165Z,23.12
2019-02-26T06:38:26.408Z,21.98
2019-02-26T06:43:16.809Z,18.33
2019-02-26T06:48:12.595Z,20.33
2019-02-26T06:52:59.357Z,20.60
2019-02-26T06:57:52.794Z,20.00
2019-02-26T07:02:45.461Z,18.07
2019-02-26T07:07:32.078Z,18.40
2019-02-26T07:12:24.003Z,17.47
2019-02-26T07:17:13.882Z,20.00
2019-02-26T07:22:05.510Z,24.95
2019-02-26T07:26:55.720Z,21.75
2019-02-26T07:31:47.303Z,22.63
2019-02-26T07:36:37.768Z,20.60
2019-02-26T07:41:30.343Z,21.87
2019-02-26T07:46:21.494Z,23.80
2019-02-26T07:51:10.505Z,23.80
2019-02-26T07:56:04.547Z,22.70
2019-02-26T08:00:53.100Z,24.10
2019-02-26T08:05:43.979Z,22.70
2019-02-26T08:10:39.382Z,31.42
2019-02-26T08:15:27.784Z,29.17
2019-02-26T08:20:17.493Z,28.63
2019-02-26T08:25:08.371Z,27.23
2019-02-26T08:30:00.896Z,27.30
2019-02-26T08:34:50.934Z,27.63
2019-02-26T08:39:41.829Z,24.97
2019-02-26T08:44:33.538Z,26.50
2019-02-26T08:49:24.469Z,27.17
2019-02-26T08:54:20.938Z,31.10
2019-02-26T08:59:06.294Z,30.67
2019-02-26T09:03:58.950Z,34.90
2019-02-26T09:08:48.117Z,30.30
2019-02-26T09:13:41.049Z,29.80
2019-02-26T09:18:31.497Z,28.77
2019-02-26T09:23:21.252Z,29.87
2019-02-26T09:28:11.765Z,28.60
2019-02-26T09:33:03.392Z,28.43
2019-02-26T09:37:56.273Z,31.03
2019-02-26T09:42:46.405Z,32.63
2019-02-26T09:47:35.440Z,41.92
2019-02-26T09:52:27.678Z,35.70
2019-02-26T09:57:18.034Z,34.70
2019-02-26T10:02:08.211Z,34.20
2019-02-26T10:06:59.129Z,33.83
2019-02-26T10:11:51.606Z,35.20
2019-02-26T10:16:40.933Z,32.70
2019-02-26T10:21:34.767Z,38.07
2019-02-26T10:26:26.160Z,43.47
2019-02-26T10:31:14.392Z,36.83
2019-02-26T10:36:07.945Z,36.53
2019-02-26T10:40:59.265Z,35.23
2019-02-26T10:45:50.054Z,35.70
2019-02-26T10:50:40.342Z,34.10
2019-02-26T10:55:35.278Z,36.10
2019-02-26T11:00:22.585Z,39.77
2019-02-26T11:05:14.297Z,43.03
2019-02-26T11:10:04.037Z,38.37
2019-02-26T11:14:56.343Z,37.73
2019-02-26T11:19:45.854Z,34.73
2019-02-26T11:24:36.843Z,35.00
2019-02-26T11:29:28.558Z,34.73
2019-02-26T11:34:19.416Z,35.43
2019-02-26T11:39:12.109Z,38.97
2019-02-26T11:44:02.033Z,43.10
2019-02-26T11:48:54.938Z,36.03
2019-02-26T11:53:45.792Z,32.87
2019-02-26T11:58:34.982Z,33.47
2019-02-26T12:03:28.071Z,33.57
2019-02-26T12:08:19.360Z,32.13
2019-02-26T12:13:07.702Z,41.75
2019-02-26T12:17:58.805Z,41.33
2019-02-26T12:22:52.308Z,36.40
2019-02-26T12:27:43.087Z,34.53
2019-02-26T12:32:32.099Z,32.83
2019-02-26T12:37:22.988Z,32.47
2019-02-26T12:42:15.947Z,32.63
2019-02-26T12:47:05.524Z,39.83
2019-02-26T12:51:57.650Z,39.85
2019-02-26T12:56:49.045Z,35.63
2019-02-26T13:01:40.809Z,29.50
2019-02-26T13:06:29.891Z,31.77
2019-02-26T13:11:24.237Z,29.07
2019-02-26T13:16:11.762Z,32.80
2019-02-26T13:21:08.886Z,34.80
2019-02-26T13:25:55.056Z,33.40
2019-02-26T13:30:45.949Z,31.93
2019-02-26T13:35:37.585Z,30.73
2019-02-26T13:40:28.514Z,30.30
2019-02-26T13:45:19.387Z,29.60
2019-02-26T13:50:10.350Z,36.75
2019-02-26T13:55:01.985Z,35.88
2019-02-26T13:59:53.633Z,30.70
2019-02-26T14:04:44.524Z,28.63
2019-02-26T14:09:35.417Z,28.17
2019-02-26T14:14:26.313Z,29.10
2019-02-26T14:19:17.222Z,28.42
2019-02-26T14:24:08.131Z,31.57
2019-02-26T14:28:59.025Z,31.03
2019-02-26T14:33:50.660Z,27.13
2019-02-26T14:38:42.301Z,24.67
2019-02-26T14:43:34.104Z,26.73
2019-02-26T14:48:25.015Z,25.80
2019-02-26T14:53:15.909Z,31.50
2019-02-26T14:58:06.827Z,28.13
2019-02-26T15:02:57.749Z,25.63
2019-02-26T15:07:48.667Z,24.10
2019-02-26T15:12:39.594Z,23.60
2019-02-26T15:17:30.906Z,23.60
2019-02-26T15:22:21.421Z,27.35
2019-02-26T15:27:12.329Z,28.10
2019-02-26T15:32:03.242Z,27.85
2019-02-26T15:36:54.137Z,24.27
2019-02-26T15:41:48.065Z,23.50
2019-02-26T15:46:37.413Z,26.37
2019-02-26T15:51:29.064Z,26.27
2019-02-26T15:56:19.965Z,29.70
2019-02-26T16:01:12.820Z,28.08
2019-02-26T16:06:02.563Z,24.73
2019-02-26T16:10:53.476Z,25.37
2019-02-26T16:15:44.384Z,24.43
2019-02-26T16:20:36.040Z,22.40
2019-02-26T16:25:26.952Z,28.08
2019-02-26T16:30:19.669Z,26.80
2019-02-26T16:35:11.349Z,25.67
2019-02-26T16:40:02.241Z,24.70
2019-02-26T16:44:55.533Z,23.13
2019-02-26T16:49:44.777Z,22.90
2019-02-26T16:54:35.670Z,22.53
2019-02-26T16:59:26.560Z,26.47
2019-02-26T17:04:17.474Z,27.77
2019-02-26T17:09:08.384Z,23.57
2019-02-26T17:13:59.300Z,26.27
2019-02-26T17:18:50.267Z,26.40
2019-02-26T17:23:41.164Z,25.27
2019-02-26T17:28:32.067Z,29.40
2019-02-26T17:33:29.887Z,29.48
2019-02-26T17:38:20.788Z,29.97
2019-02-26T17:43:11.685Z,26.80
2019-02-26T17:48:02.697Z,25.93
2019-02-26T17:52:53.588Z,26.07
2019-02-26T17:57:44.505Z,25.20
2019-02-26T18:02:36.141Z,30.50
2019-02-26T18:07:27.768Z,30.58
2019-02-26T18:12:18.648Z,27.43
2019-02-26T18:17:09.538Z,28.97
2019-02-26T18:22:00.429Z,27.43
2019-02-26T18:26:52.060Z,24.57
2019-02-26T18:31:43.693Z,26.33
2019-02-26T18:36:34.572Z,27.67
2019-02-26T18:41:25.482Z,30.75
2019-02-26T18:46:16.403Z,27.60
2019-02-26T18:51:07.441Z,26.53
2019-02-26T18:55:58.347Z,25.93
2019-02-26T19:00:49.245Z,28.00
2019-02-26T19:05:40.141Z,26.87
2019-02-26T19:10:31.911Z,26.80
2019-02-26T19:15:26.629Z,31.57
2019-02-26T19:20:18.250Z,26.93
2019-02-26T19:25:09.793Z,29.43
2019-02-26T19:30:04.053Z,28.43
2019-02-26T19:34:52.872Z,27.80
2019-02-26T19:39:44.147Z,28.90
2019-02-26T19:44:36.445Z,32.60
2019-02-26T19:49:26.709Z,29.77
2019-02-26T19:54:17.610Z,29.50
2019-02-26T19:59:08.576Z,28.87
2019-02-26T20:03:59.541Z,29.83
2019-02-26T20:08:50.439Z,26.83
2019-02-26T20:13:42.229Z,26.93
2019-02-26T20:18:32.267Z,29.50
2019-02-26T20:23:23.173Z,31.50
2019-02-26T20:28:14.068Z,31.60
2019-02-26T20:33:04.968Z,29.80
2019-02-26T20:37:58.666Z,29.80
2019-02-26T20:42:47.525Z,28.50
2019-02-26T20:47:39.212Z,29.20
2019-02-26T20:52:32.675Z,29.47
2019-02-26T20:57:21.051Z,29.87
2019-02-26T21:02:11.965Z,31.87
2019-02-26T21:07:02.959Z,32.37
2019-02-26T21:11:55.848Z,29.20
2019-02-26T21:16:44.816Z,29.40
2019-02-26T21:21:35.872Z,29.40
2019-02-26T21:26:26.669Z,29.33
2019-02-26T21:31:19.074Z,29.00
2019-02-26T21:36:08.494Z,28.00
2019-02-26T21:40:59.463Z,34.63
2019-02-26T21:45:51.085Z,34.90
2019-02-26T21:50:41.994Z,29.53
2019-02-26T21:55:44.004Z,29.80
2019-02-26T22:00:24.573Z,29.57
2019-02-26T22:05:16.218Z,30.30
2019-02-26T22:10:09.825Z,29.17
2019-02-26T22:15:00.712Z,27.73
2019-02-26T22:19:52.364Z,32.33
2019-02-26T22:24:43.260Z,30.37
2019-02-26T22:29:36.383Z,28.50
2019-02-26T22:34:26.938Z,28.87
2019-02-26T22:39:22.413Z,30.30
2019-02-26T22:44:09.484Z,27.70
2019-02-26T22:49:00.456Z,29.40
2019-02-26T22:53:51.421Z,28.30
2019-02-26T22:58:42.265Z,27.40
2019-02-26T23:03:33.168Z,35.20
2019-02-26T23:08:24.844Z,34.88
2019-02-26T23:13:15.739Z,31.03
2019-02-26T23:18:06.662Z,30.30
2019-02-26T23:22:57.548Z,27.80
2019-02-26T23:27:49.366Z,28.33
2019-02-26T23:32:40.149Z,28.57
2019-02-26T23:37:34.193Z,26.73
2019-02-26T23:42:21.993Z,28.87
2019-02-26T23:47:12.891Z,30.17
2019-02-26T23:52:03.799Z,33.20
2019-02-26T23:56:55.434Z,30.93
